Time;durP1;ratioP1;P1;durP2;ratioP2;P2;SDS_P1;SDS_P2;PMS_P1;PMS_P2;Temp;Humidity;BMP_temperature;BMP_pressure;BME280_temperature;BME280_humidity;BME280_pressure;Samples;Min_cycle;Max_cycle;Signal;HPM_P1;HPM_P2
2024/03/28 00:01:31;;;;;;;;;;;;;;;;;;5111460;28;19912;-69
2024/03/28 00:03:57;;;;;;;;;;;;;;;;;;5111895;28;19908;-69
2024/03/28 00:06:22;;;;;;;;;;;;;;;;;;5111821;28;19930;-70
2024/03/28 00:08:47;;;;;;;;;;;;;;;;;;5107099;28;19912;-62
2024/03/28 00:11:12;;;;;;;;;;;;;;;;;;5092833;28;20049;-61
2024/03/28 00:13:37;;;;;;;;;;;;;;;;;;5093777;28;19919;-61
2024/03/28 00:16:02;;;;;;;;;;;;;;;;;;5110937;28;19914;-62
2024/03/28 00:18:27;;;;;;;;;;;;;;;;;;5111494;28;19923;-61
2024/03/28 00:20:52;;;;;;;;;;;;;;;;;;5111339;28;19914;-62
2024/03/28 00:23:17;;;;;;;;;;;;;;;;;;5111121;28;19958;-62
2024/03/28 00:25:43;;;;;;;;;;;;;;;;;;5103764;28;19962;-61
2024/03/28 00:28:08;;;;;;;;;;;;;;;;;;5092244;28;19962;-61
2024/03/28 00:30:33;;;;;;;;;;;;;;;;;;5092112;28;19914;-62
2024/03/28 00:32:58;;;;;;;;;;;;;;;;;;5108762;28;20007;-62
2024/03/28 00:35:23;;;;;;;;;;;;;;;;;;5111084;28;19915;-61
2024/03/28 00:37:48;;;;;;;;;;;;;;;;;;5111362;28;19919;-62
2024/03/28 00:40:13;;;;;;;;;;;;;;;;;;5103163;28;19945;-61
2024/03/28 00:42:38;;;;;;;;;;;;;;;;;;5108935;28;20008;-62
2024/03/28 00:45:04;;;;;;;;;;;;;;;;;;5094341;28;19962;-62
2024/03/28 00:47:29;;;;;;;;;;;;;;;;;;5092067;28;19986;-62
2024/03/28 00:49:54;;;;;;;;;;;;;;;;;;5109836;28;19915;-62
2024/03/28 00:52:19;;;;;;;;;;;;;;;;;;5111092;28;19921;-62
2024/03/28 00:54:44;;;;;;;;;;;;;;;;;;5110874;28;19907;-62
2024/03/28 00:57:09;;;;;;;;;;;;;;;;;;5102214;28;19999;-62
2024/03/28 00:59:34;;;;;;;;;;;;;;;;;;5095206;28;19908;-61
2024/03/28 01:01:59;;;;;;;;;;;;;;;;;;5099905;28;19912;-62
2024/03/28 01:04:24;;;;;;;;;;;;;;;;;;5092721;28;20433;-62
2024/03/28 01:06:50;;;;;;;;;;;;;;;;;;5098083;28;20453;-62
2024/03/28 01:09:15;;;;;;;;;;;;;;;;;;5104531;28;20390;-62
2024/03/28 01:11:40;;;;;;;;;;;;;;;;;;5109980;28;20382;-61
2024/03/28 01:14:05;;;;;;;;;;;;;;;;;;5109925;28;20275;-62
2024/03/28 01:16:30;;;;;;;;;;;;;;;;;;5098761;28;19962;-62
2024/03/28 01:18:55;;;;;;;;;;;;;;;;;;5110923;28;19908;-62
2024/03/28 01:21:20;;;;;;;;;;;;;;;;;;5092112;28;20284;-62
2024/03/28 01:23:45;;;;;;;;;;;;;;;;;;5095894;28;19908;-62
2024/03/28 01:26:10;;;;;;;;;;;;;;;;;;5091526;28;19908;-61
2024/03/28 01:28:36;;;;;;;;;;;;;;;;;;5093833;28;19968;-62
2024/03/28 01:31:04;;;;;;;;;;;;;;;;;;5106675;28;19912;-62
2024/03/28 01:33:30;;;;;;;;;;;;;;;;;;5110798;28;19907;-61
2024/03/28 01:35:55;;;;;;;;;;;;;;;;;;5111101;28;19919;-61
2024/03/28 01:38:20;;;;;;;;;;;;;;;;;;5110656;28;19919;-62
2024/03/28 01:40:45;;;;;;;;;;;;;;;;;;5092790;28;20006;-62
2024/03/28 01:43:10;;;;;;;;;;;;;;;;;;5094951;28;19973;-62
2024/03/28 01:45:35;;;;;;;;;;;;;;;;;;5110694;28;20592;-63
2024/03/28 01:48:00;;;;;;;;;;;;;;;;;;5093975;28;20375;-62
2024/03/28 01:50:25;;;;;;;;;;;;;;;;;;5103285;28;19918;-62
2024/03/28 01:52:51;;;;;;;;;;;;;;;;;;5110377;28;20438;-61
2024/03/28 01:55:16;;;;;;;;;;;;;;;;;;5107320;28;20268;-61
2024/03/28 01:57:41;;;;;;;;;;;;;;;;;;5091905;28;20318;-62
2024/03/28 02:00:07;;;;;;;;;;;;;;;;;;5091515;28;19969;-62
2024/03/28 02:02:33;;;;;;;;;;;;;;;;;;5093562;28;20006;-62
2024/03/28 02:04:58;;;;;;;;;;;;;;;;;;5091415;28;20007;-62
2024/03/28 02:07:23;;;;;;;;;;;;;;;;;;5098469;28;19915;-62
2024/03/28 02:09:48;;;;;;;;;;;;;;;;;;5110367;28;19907;-62
2024/03/28 02:12:13;;;;;;;;;;;;;;;;;;5105702;28;19950;-62
2024/03/28 02:14:38;;;;;;;;;;;;;;;;;;5097936;28;19908;-63
2024/03/28 02:17:03;;;;;;;;;;;;;;;;;;5102459;28;19908;-63
2024/03/28 02:19:29;;;;;;;;;;;;;;;;;;5096118;28;19912;-62
2024/03/28 02:21:54;;;;;;;;;;;;;;;;;;5094905;28;19938;-62
2024/03/28 02:24:19;;;;;;;;;;;;;;;;;;5094562;28;20320;-63
2024/03/28 02:26:44;;;;;;;;;;;;;;;;;;5108093;28;19963;-62
2024/03/28 02:29:09;;;;;;;;;;;;;;;;;;5113691;28;19907;-73
2024/03/28 02:31:34;;;;;;;;;;;;;;;;;;5098063;28;19912;-71
2024/03/28 02:33:59;;;;;;;;;;;;;;;;;;5113156;28;19908;-72
2024/03/28 02:36:24;;;;;;;;;;;;;;;;;;5113641;28;19908;-72
2024/03/28 02:38:50;;;;;;;;;;;;;;;;;;5113272;28;19967;-73
2024/03/28 02:41:15;;;;;;;;;;;;;;;;;;5113503;28;19988;-73
2024/03/28 02:43:40;;;;;;;;;;;;;;;;;;5113555;28;19908;-73
2024/03/28 02:46:05;;;;;;;;;;;;;;;;;;5094904;28;19998;-73
2024/03/28 02:48:30;;;;;;;;;;;;;;;;;;5094850;28;20360;-71
2024/03/28 02:50:55;;;;;;;;;;;;;;;;;;5094158;28;20532;-72
2024/03/28 02:53:20;;;;;;;;;;;;;;;;;;5112775;28;20271;-72
2024/03/28 02:55:45;;;;;;;;;;;;;;;;;;5113372;28;20307;-72
2024/03/28 02:58:11;;;;;;;;;;;;;;;;;;5105863;28;19961;-73
2024/03/28 03:00:36;;;;;;;;;;;;;;;;;;5102566;28;20215;-73
2024/03/28 03:03:02;;;;;;;;;;;;;;;;;;5095919;28;19912;-73
2024/03/28 03:05:27;;;;;;;;;;;;;;;;;;5098578;28;20049;-72
2024/03/28 03:07:52;;;;;;;;;;;;;;;;;;5113479;28;19990;-73
2024/03/28 03:10:17;;;;;;;;;;;;;;;;;;5113169;28;19920;-72
2024/03/28 03:12:42;;;;;;;;;;;;;;;;;;5112696;28;19908;-72
2024/03/28 03:15:07;;;;;;;;;;;;;;;;;;5112877;28;19907;-73
2024/03/28 03:17:32;;;;;;;;;;;;;;;;;;5111131;28;20002;-73
2024/03/28 03:19:59;;;;;;;;;;;;;;;;;;5112922;28;19908;-71
2024/03/28 03:22:24;;;;;;;;;;;;;;;;;;5098431;28;19919;-74
2024/03/28 03:24:56;;;;;;;;;;;;;;;;;;5092713;28;19908;-72
2024/03/28 03:27:21;;;;;;;;;;;;;;;;;;5093742;28;20484;-71
2024/03/28 03:35:21;;;;;;;;;;;;;;;;;;5081042;28;19912;-71
2024/03/28 03:37:46;;;;;;;;;;;;;;;;;;5110483;28;20323;-71
2024/03/28 03:40:11;;;;;;;;;;;;;;;;;;5093146;28;20315;-71
2024/03/28 03:42:37;;;;;;;;;;;;;;;;;;5093254;28;20371;-71
2024/03/28 03:45:02;;;;;;;;;;;;;;;;;;5093357;28;19938;-72
2024/03/28 03:47:27;;;;;;;;;;;;;;;;;;5093057;28;20350;-70
2024/03/28 03:49:52;;;;;;;;;;;;;;;;;;5093708;28;19998;-72
2024/03/28 03:52:17;;;;;;;;;;;;;;;;;;5092754;28;19916;-72
2024/03/28 03:54:42;;;;;;;;;;;;;;;;;;5093298;28;19908;-72
2024/03/28 03:57:07;;;;;;;;;;;;;;;;;;5093155;28;19912;-72
2024/03/28 03:59:32;;;;;;;;;;;;;;;;;;5093062;28;19912;-72
2024/03/28 04:01:58;;;;;;;;;;;;;;;;;;5092847;28;19952;-71
2024/03/28 04:04:23;;;;;;;;;;;;;;;;;;5092952;28;19915;-72
2024/03/28 04:06:48;;;;;;;;;;;;;;;;;;5092567;28;19915;-72
2024/03/28 04:09:13;;;;;;;;;;;;;;;;;;5092539;28;19919;-72
2024/03/28 04:11:38;;;;;;;;;;;;;;;;;;5092536;28;19914;-69
2024/03/28 04:14:03;;;;;;;;;;;;;;;;;;5092399;28;19909;-72
2024/03/28 04:16:29;;;;;;;;;;;;;;;;;;5094938;28;20003;-72
2024/03/28 04:18:54;;;;;;;;;;;;;;;;;;5095574;28;19912;-71
2024/03/28 04:21:19;;;;;;;;;;;;;;;;;;5095585;28;19916;-73
2024/03/28 04:23:44;;;;;;;;;;;;;;;;;;5109729;28;19912;-73
2024/03/28 04:26:09;;;;;;;;;;;;;;;;;;5094339;28;19915;-71
2024/03/28 04:28:34;;;;;;;;;;;;;;;;;;5092503;28;20311;-71
2024/03/28 04:31:00;;;;;;;;;;;;;;;;;;5092483;28;19908;-71
2024/03/28 04:33:25;;;;;;;;;;;;;;;;;;5092178;28;20375;-71
2024/03/28 04:35:50;;;;;;;;;;;;;;;;;;5091076;28;19908;-71
2024/03/28 04:38:15;;;;;;;;;;;;;;;;;;5092039;28;19923;-72
2024/03/28 04:40:40;;;;;;;;;;;;;;;;;;5091816;28;19924;-72
2024/03/28 04:43:05;;;;;;;;;;;;;;;;;;5091931;28;19986;-72
2024/03/28 04:45:31;;;;;;;;;;;;;;;;;;5091896;28;19908;-72
2024/03/28 04:47:56;;;;;;;;;;;;;;;;;;5092323;28;19912;-72
2024/03/28 04:50:21;;;;;;;;;;;;;;;;;;5097268;28;19912;-62
2024/03/28 04:52:46;;;;;;;;;;;;;;;;;;5091902;28;19908;-61
2024/03/28 04:55:11;;;;;;;;;;;;;;;;;;5101580;28;19918;-61
2024/03/28 04:57:36;;;;;;;;;;;;;;;;;;5098381;28;19954;-62
2024/03/28 05:00:02;;;;;;;;;;;;;;;;;;5091752;28;19909;-62
2024/03/28 05:02:27;;;;;;;;;;;;;;;;;;5092865;28;20257;-61
2024/03/28 05:04:52;;;;;;;;;;;;;;;;;;5097149;28;19911;-60
2024/03/28 05:07:17;;;;;;;;;;;;;;;;;;5110854;28;19912;-61
2024/03/28 05:09:42;;;;;;;;;;;;;;;;;;5110743;28;19912;-61
2024/03/28 05:12:07;;;;;;;;;;;;;;;;;;5110432;28;19911;-61
2024/03/28 05:14:33;;;;;;;;;;;;;;;;;;5106017;28;19908;-61
2024/03/28 05:16:59;;;;;;;;;;;;;;;;;;5107372;28;19915;-60
2024/03/28 05:19:24;;;;;;;;;;;;;;;;;;5109509;28;19912;-61
2024/03/28 05:21:49;;;;;;;;;;;;;;;;;;5094064;28;19912;-61
2024/03/28 05:24:14;;;;;;;;;;;;;;;;;;5091802;28;20354;-61
2024/03/28 05:26:39;;;;;;;;;;;;;;;;;;5109456;28;19914;-61
2024/03/28 05:29:04;;;;;;;;;;;;;;;;;;5094571;28;19908;-62
2024/03/28 05:31:29;;;;;;;;;;;;;;;;;;5091782;28;19995;-61
2024/03/28 05:33:55;;;;;;;;;;;;;;;;;;5092993;28;19958;-60
2024/03/28 05:36:20;;;;;;;;;;;;;;;;;;5110676;28;19961;-62
2024/03/28 05:38:45;;;;;;;;;;;;;;;;;;5101650;28;19935;-61
2024/03/28 05:41:11;;;;;;;;;;;;;;;;;;5091602;28;19916;-62
2024/03/28 05:43:36;;;;;;;;;;;;;;;;;;5091475;28;19920;-62
2024/03/28 05:46:01;;;;;;;;;;;;;;;;;;5091693;28;19908;-62
2024/03/28 05:48:26;;;;;;;;;;;;;;;;;;5095395;28;19909;-62
2024/03/28 05:50:51;;;;;;;;;;;;;;;;;;5112902;28;19908;-61
2024/03/28 05:53:16;;;;;;;;;;;;;;;;;;5106822;28;19908;-61
2024/03/28 05:55:42;;;;;;;;;;;;;;;;;;5097063;28;19986;-62
2024/03/28 05:58:07;;;;;;;;;;;;;;;;;;5095185;28;19916;-61
2024/03/28 06:00:32;;;;;;;;;;;;;;;;;;5094948;28;19931;-70
2024/03/28 06:02:57;;;;;;;;;;;;;;;;;;5094850;28;19916;-71
2024/03/28 06:05:22;;;;;;;;;;;;;;;;;;5103893;28;20006;-70
2024/03/28 06:07:47;;;;;;;;;;;;;;;;;;5114489;28;19911;-73
2024/03/28 06:10:13;;;;;;;;;;;;;;;;;;5105298;28;19908;-72
2024/03/28 06:12:38;;;;;;;;;;;;;;;;;;5108436;28;19916;-72
2024/03/28 06:15:04;;;;;;;;;;;;;;;;;;5100550;28;19916;-72
2024/03/28 06:17:29;;;;;;;;;;;;;;;;;;5095417;28;20264;-72
2024/03/28 06:19:54;;;;;;;;;;;;;;;;;;5094072;28;19912;-71
2024/03/28 06:22:19;;;;;;;;;;;;;;;;;;5094395;28;19916;-72
2024/03/28 06:24:44;;;;;;;;;;;;;;;;;;5108639;28;19916;-71
2024/03/28 06:27:09;;;;;;;;;;;;;;;;;;5114685;28;19963;-71
2024/03/28 06:29:39;;;;;;;;;;;;;;;;;;5098761;28;19966;-72
2024/03/28 06:32:13;;;;;;;;;;;;;;;;;;5100652;28;19920;-70
2024/03/28 06:34:38;;;;;;;;;;;;;;;;;;5108037;28;20324;-70
2024/03/28 06:37:03;;;;;;;;;;;;;;;;;;5107788;28;20414;-69
2024/03/28 06:39:29;;;;;;;;;;;;;;;;;;5094253;28;20383;-71
2024/03/28 06:41:54;;;;;;;;;;;;;;;;;;5094607;28;19930;-70
2024/03/28 06:44:19;;;;;;;;;;;;;;;;;;5097184;28;19920;-68
2024/03/28 06:46:44;;;;;;;;;;;;;;;;;;5099028;28;20196;-71
2024/03/28 06:49:09;;;;;;;;;;;;;;;;;;5098979;28;19983;-71
2024/03/28 06:51:34;;;;;;;;;;;;;;;;;;5112849;28;20551;-71
2024/03/28 06:53:59;;;;;;;;;;;;;;;;;;5112717;28;20383;-68
2024/03/28 06:56:25;;;;;;;;;;;;;;;;;;5112416;28;19912;-71
2024/03/28 06:58:50;;;;;;;;;;;;;;;;;;5102857;28;20006;-71
2024/03/28 07:01:16;;;;;;;;;;;;;;;;;;5106721;28;19939;-68
2024/03/28 07:03:42;;;;;;;;;;;;;;;;;;5103755;28;19935;-70
2024/03/28 07:06:07;;;;;;;;;;;;;;;;;;5114366;28;19908;-71
2024/03/28 07:08:33;;;;;;;;;;;;;;;;;;5110210;28;19924;-60
2024/03/28 07:10:59;;;;;;;;;;;;;;;;;;5093405;28;19957;-60
2024/03/28 07:13:24;;;;;;;;;;;;;;;;;;5100947;28;19916;-61
2024/03/28 07:15:49;;;;;;;;;;;;;;;;;;5102891;28;19919;-61
2024/03/28 07:18:14;;;;;;;;;;;;;;;;;;5108636;28;19961;-61
2024/03/28 07:20:39;;;;;;;;;;;;;;;;;;5093618;28;19983;-60
2024/03/28 07:23:04;;;;;;;;;;;;;;;;;;5105657;28;19920;-60
2024/03/28 07:25:29;;;;;;;;;;;;;;;;;;5112450;28;19912;-61
2024/03/28 07:27:54;;;;;;;;;;;;;;;;;;5110263;28;20360;-61
2024/03/28 07:30:19;;;;;;;;;;;;;;;;;;5113877;28;20375;-61
2024/03/28 07:32:48;;;;;;;;;;;;;;;;;;5113796;28;20407;-60
2024/03/28 07:35:13;;;;;;;;;;;;;;;;;;5096487;28;20467;-62
2024/03/28 07:37:38;;;;;;;;;;;;;;;;;;5093291;28;19991;-60
2024/03/28 07:40:04;;;;;;;;;;;;;;;;;;5081619;28;20369;-61
2024/03/28 07:42:29;;;;;;;;;;;;;;;;;;5072574;28;19924;-60
2024/03/28 07:44:54;;;;;;;;;;;;;;;;;;5086589;28;19919;-60
2024/03/28 07:47:19;;;;;;;;;;;;;;;;;;5093120;28;20360;-60
2024/03/28 07:49:44;;;;;;;;;;;;;;;;;;5083851;28;19955;-61
2024/03/28 07:52:10;;;;;;;;;;;;;;;;;;5071920;28;19966;-60
2024/03/28 07:54:37;;;;;;;;;;;;;;;;;;5078993;28;19943;-62
2024/03/28 07:57:02;;;;;;;;;;;;;;;;;;5072752;28;20317;-60
2024/03/28 07:59:27;;;;;;;;;;;;;;;;;;5073046;28;20419;-60
2024/03/28 08:01:52;;;;;;;;;;;;;;;;;;5090637;28;20280;-61
2024/03/28 08:04:18;;;;;;;;;;;;;;;;;;5086674;28;19946;-62
2024/03/28 08:06:43;;;;;;;;;;;;;;;;;;5083736;28;19957;-60
2024/03/28 08:09:08;;;;;;;;;;;;;;;;;;5091583;28;19912;-60
2024/03/28 08:11:33;;;;;;;;;;;;;;;;;;5090707;28;19913;-60
2024/03/28 08:13:58;;;;;;;;;;;;;;;;;;5072936;28;19912;-60
2024/03/28 08:16:24;;;;;;;;;;;;;;;;;;5089420;28;19996;-61
2024/03/28 08:18:49;;;;;;;;;;;;;;;;;;5091761;28;19920;-71
2024/03/28 08:21:15;;;;;;;;;;;;;;;;;;5078743;28;20262;-69
2024/03/28 08:23:40;;;;;;;;;;;;;;;;;;5071412;28;19970;-69
2024/03/28 08:26:05;;;;;;;;;;;;;;;;;;5086915;28;19922;-69
2024/03/28 08:28:30;;;;;;;;;;;;;;;;;;5073776;28;20367;-70
2024/03/28 08:30:56;;;;;;;;;;;;;;;;;;5072034;28;19915;-69
2024/03/28 08:33:22;;;;;;;;;;;;;;;;;;5071177;28;19912;-70
2024/03/28 08:35:47;;;;;;;;;;;;;;;;;;5085586;28;19931;-70
2024/03/28 08:38:12;;;;;;;;;;;;;;;;;;5071873;28;19931;-68
2024/03/28 08:40:37;;;;;;;;;;;;;;;;;;5071553;28;19927;-69
2024/03/28 08:43:03;;;;;;;;;;;;;;;;;;5071550;28;19921;-69
2024/03/28 08:45:28;;;;;;;;;;;;;;;;;;5078448;28;19944;-69
2024/03/28 08:47:56;;;;;;;;;;;;;;;;;;5087726;28;19912;-69
2024/03/28 08:50:21;;;;;;;;;;;;;;;;;;5090456;28;19912;-68
2024/03/28 08:52:46;;;;;;;;;;;;;;;;;;5077420;28;19919;-69
2024/03/28 08:55:11;;;;;;;;;;;;;;;;;;5079937;28;19990;-69
2024/03/28 08:57:37;;;;;;;;;;;;;;;;;;5091876;28;19915;-67
2024/03/28 09:00:10;;;;;;;;;;;;;;;;;;5074970;28;19923;-68
2024/03/28 09:02:35;;;;;;;;;;;;;;;;;;5090034;28;19922;-67
2024/03/28 09:05:00;;;;;;;;;;;;;;;;;;5090817;28;19912;-68
2024/03/28 09:07:25;;;;;;;;;;;;;;;;;;5081372;28;19962;-68
2024/03/28 09:09:51;;;;;;;;;;;;;;;;;;5084726;28;19920;-68
2024/03/28 09:12:17;;;;;;;;;;;;;;;;;;5091659;28;19908;-68
2024/03/28 09:14:42;;;;;;;;;;;;;;;;;;5083429;28;20314;-67
2024/03/28 09:17:08;;;;;;;;;;;;;;;;;;5076055;28;20314;-67
2024/03/28 09:19:33;;;;;;;;;;;;;;;;;;5090540;28;20340;-68
2024/03/28 09:21:58;;;;;;;;;;;;;;;;;;5090176;28;19926;-67
2024/03/28 09:24:23;;;;;;;;;;;;;;;;;;5075115;28;20292;-68
2024/03/28 09:26:48;;;;;;;;;;;;;;;;;;5075472;28;20257;-68
2024/03/28 09:29:19;;;;;;;;;;;;;;;;;;5077299;28;19920;-67
2024/03/28 09:31:48;;;;;;;;;;;;;;;;;;5075464;28;19915;-68
2024/03/28 09:34:13;;;;;;;;;;;;;;;;;;5078803;28;19916;-68
2024/03/28 09:36:38;;;;;;;;;;;;;;;;;;5093840;28;19914;-67
2024/03/28 09:39:03;;;;;;;;;;;;;;;;;;5077222;28;19978;-68
2024/03/28 09:41:28;;;;;;;;;;;;;;;;;;5083596;28;19920;-69
2024/03/28 09:43:53;;;;;;;;;;;;;;;;;;5082131;28;19962;-69
2024/03/28 09:46:18;;;;;;;;;;;;;;;;;;5074635;28;19921;-70
2024/03/28 09:48:43;;;;;;;;;;;;;;;;;;5074843;28;19912;-69
2024/03/28 09:51:09;;;;;;;;;;;;;;;;;;5074645;28;19920;-70
2024/03/28 09:53:34;;;;;;;;;;;;;;;;;;5075231;28;19915;-69
2024/03/28 09:55:59;;;;;;;;;;;;;;;;;;5092716;28;19912;-70
2024/03/28 09:58:24;;;;;;;;;;;;;;;;;;5087906;28;19912;-69
2024/03/28 10:00:49;;;;;;;;;;;;;;;;;;5074179;28;19913;-69
2024/03/28 10:03:14;;;;;;;;;;;;;;;;;;5087171;28;19999;-69
2024/03/28 10:05:39;;;;;;;;;;;;;;;;;;5089931;28;19919;-69
2024/03/28 10:08:05;;;;;;;;;;;;;;;;;;5092859;28;19919;-68
2024/03/28 10:10:31;;;;;;;;;;;;;;;;;;5075618;28;20384;-70
2024/03/28 10:12:56;;;;;;;;;;;;;;;;;;5074587;28;20021;-70
2024/03/28 10:15:21;;;;;;;;;;;;;;;;;;5075411;28;19916;-67
2024/03/28 10:17:47;;;;;;;;;;;;;;;;;;5089782;28;19912;-69
2024/03/28 10:20:13;;;;;;;;;;;;;;;;;;5093751;28;20380;-68
2024/03/28 10:22:41;;;;;;;;;;;;;;;;;;5094026;28;20437;-69
2024/03/28 10:25:06;;;;;;;;;;;;;;;;;;5082469;28;19977;-69
2024/03/28 10:27:33;;;;;;;;;;;;;;;;;;5090673;28;20622;-70
2024/03/28 10:29:58;;;;;;;;;;;;;;;;;;5094477;28;19958;-70
2024/03/28 10:32:23;;;;;;;;;;;;;;;;;;5093783;28;20341;-69
2024/03/28 10:34:48;;;;;;;;;;;;;;;;;;5090558;28;19908;-69
2024/03/28 10:37:13;;;;;;;;;;;;;;;;;;5083973;28;20300;-67
2024/03/28 10:39:38;;;;;;;;;;;;;;;;;;5096219;28;19951;-69
2024/03/28 10:42:04;;;;;;;;;;;;;;;;;;5093777;28;19920;-69
2024/03/28 10:44:30;;;;;;;;;;;;;;;;;;5097696;28;19911;-69
2024/03/28 10:46:55;;;;;;;;;;;;;;;;;;5113185;28;20288;-70
2024/03/28 10:49:20;;;;;;;;;;;;;;;;;;5114568;28;20368;-69
2024/03/28 10:51:49;;;;;;;;;;;;;;;;;;5109469;28;20295;-69
2024/03/28 10:54:14;;;;;;;;;;;;;;;;;;5108707;28;20000;-69
2024/03/28 10:56:39;;;;;;;;;;;;;;;;;;5105582;28;19965;-70
2024/03/28 10:59:04;;;;;;;;;;;;;;;;;;5105941;28;19919;-69
2024/03/28 11:01:29;;;;;;;;;;;;;;;;;;5097075;28;19922;-69
2024/03/28 11:03:55;;;;;;;;;;;;;;;;;;5110154;28;20437;-70
2024/03/28 11:06:20;;;;;;;;;;;;;;;;;;5099303;28;19965;-69
2024/03/28 11:08:45;;;;;;;;;;;;;;;;;;5093546;28;19908;-69
2024/03/28 11:11:10;;;;;;;;;;;;;;;;;;5095697;28;19947;-69
2024/03/28 11:13:36;;;;;;;;;;;;;;;;;;5095250;28;19912;-69
2024/03/28 11:16:01;;;;;;;;;;;;;;;;;;5103671;28;19915;-69
2024/03/28 11:18:26;;;;;;;;;;;;;;;;;;5114073;28;19911;-69
2024/03/28 11:20:51;;;;;;;;;;;;;;;;;;5113249;28;19912;-70
2024/03/28 11:23:16;;;;;;;;;;;;;;;;;;5110320;28;20336;-68
2024/03/28 11:25:46;;;;;;;;;;;;;;;;;;5107757;28;19916;-72
2024/03/28 11:28:11;;;;;;;;;;;;;;;;;;5093259;28;19908;-68
2024/03/28 11:30:36;;;;;;;;;;;;;;;;;;5100214;28;19912;-69
2024/03/28 11:33:01;;;;;;;;;;;;;;;;;;5108011;28;19912;-68
2024/03/28 11:35:27;;;;;;;;;;;;;;;;;;5111890;28;19962;-70
2024/03/28 11:37:52;;;;;;;;;;;;;;;;;;5107907;28;19915;-68
2024/03/28 11:40:17;;;;;;;;;;;;;;;;;;5108481;28;19920;-69
2024/03/28 11:42:42;;;;;;;;;;;;;;;;;;5093440;28;19925;-69
2024/03/28 11:45:07;;;;;;;;;;;;;;;;;;5093210;28;19912;-69
2024/03/28 11:47:32;;;;;;;;;;;;;;;;;;5097662;28;20295;-68
2024/03/28 11:49:58;;;;;;;;;;;;;;;;;;5113168;28;19919;-69
2024/03/28 11:52:23;;;;;;;;;;;;;;;;;;5099450;28;19920;-69
2024/03/28 11:54:48;;;;;;;;;;;;;;;;;;5108153;28;19918;-70
2024/03/28 11:57:13;;;;;;;;;;;;;;;;;;5104730;28;19962;-68
2024/03/28 11:59:39;;;;;;;;;;;;;;;;;;5096548;28;20003;-69
2024/03/28 12:02:04;;;;;;;;;;;;;;;;;;5097394;28;19923;-68
2024/03/28 12:04:30;;;;;;;;;;;;;;;;;;5094720;28;19920;-69
2024/03/28 12:06:55;;;;;;;;;;;;;;;;;;5097965;28;19912;-70
2024/03/28 12:09:20;;;;;;;;;;;;;;;;;;5092406;28;19908;-70
2024/03/28 12:11:45;;;;;;;;;;;;;;;;;;5096578;28;19920;-70
2024/03/28 12:14:11;;;;;;;;;;;;;;;;;;5100777;28;19923;-69
2024/03/28 12:16:37;;;;;;;;;;;;;;;;;;5112333;28;19919;-70
2024/03/28 12:19:02;;;;;;;;;;;;;;;;;;5096030;28;19919;-69
2024/03/28 12:21:27;;;;;;;;;;;;;;;;;;5092121;28;19957;-70
2024/03/28 12:23:52;;;;;;;;;;;;;;;;;;5105066;28;19920;-69
2024/03/28 12:26:17;;;;;;;;;;;;;;;;;;5111937;28;19922;-70
2024/03/28 12:28:42;;;;;;;;;;;;;;;;;;5098086;28;20013;-70
2024/03/28 12:31:07;;;;;;;;;;;;;;;;;;5091543;28;19927;-70
2024/03/28 12:33:32;;;;;;;;;;;;;;;;;;5095832;28;19926;-71
2024/03/28 12:35:57;;;;;;;;;;;;;;;;;;5112243;28;20007;-70
2024/03/28 12:38:23;;;;;;;;;;;;;;;;;;5107262;28;19915;-71
2024/03/28 12:40:48;;;;;;;;;;;;;;;;;;5110712;28;19923;-70
2024/03/28 12:43:13;;;;;;;;;;;;;;;;;;5108724;28;19968;-70
2024/03/28 12:45:38;;;;;;;;;;;;;;;;;;5102040;28;19923;-70
2024/03/28 12:48:05;;;;;;;;;;;;;;;;;;5099930;28;19922;-69
2024/03/28 12:50:32;;;;;;;;;;;;;;;;;;5112320;28;19934;-70
2024/03/28 12:52:57;;;;;;;;;;;;;;;;;;5108959;28;20278;-69
2024/03/28 12:55:22;;;;;;;;;;;;;;;;;;5105882;28;20372;-71
2024/03/28 12:57:48;;;;;;;;;;;;;;;;;;5091639;28;21606;-70
2024/03/28 13:00:13;;;;;;;;;;;;;;;;;;5092689;28;20203;-71
2024/03/28 13:02:38;;;;;;;;;;;;;;;;;;5091451;28;20279;-70
2024/03/28 13:05:03;;;;;;;;;;;;;;;;;;5105823;28;19912;-71
2024/03/28 13:07:28;;;;;;;;;;;;;;;;;;5097335;28;19912;-71
2024/03/28 13:09:53;;;;;;;;;;;;;;;;;;5099036;28;19938;-61
2024/03/28 13:12:18;;;;;;;;;;;;;;;;;;5112028;28;19990;-61
2024/03/28 13:14:44;;;;;;;;;;;;;;;;;;5106468;28;19919;-61
2024/03/28 13:17:09;;;;;;;;;;;;;;;;;;5111376;28;19916;-61
2024/03/28 13:19:34;;;;;;;;;;;;;;;;;;5110716;28;19912;-61
2024/03/28 13:21:59;;;;;;;;;;;;;;;;;;5100103;28;19924;-61
2024/03/28 13:24:25;;;;;;;;;;;;;;;;;;5091537;28;19908;-61
2024/03/28 13:26:50;;;;;;;;;;;;;;;;;;5097871;28;19926;-62
2024/03/28 13:29:15;;;;;;;;;;;;;;;;;;5109075;28;19970;-62
2024/03/28 13:31:40;;;;;;;;;;;;;;;;;;5095116;28;19916;-61
2024/03/28 13:34:06;;;;;;;;;;;;;;;;;;5102128;28;19915;-61
2024/03/28 13:36:31;;;;;;;;;;;;;;;;;;5104632;28;19932;-61
2024/03/28 13:38:56;;;;;;;;;;;;;;;;;;5107488;28;19962;-63
2024/03/28 13:41:21;;;;;;;;;;;;;;;;;;5105934;28;19980;-62
2024/03/28 13:43:46;;;;;;;;;;;;;;;;;;5099011;28;19931;-62
2024/03/28 13:46:11;;;;;;;;;;;;;;;;;;5093368;28;19923;-61
2024/03/28 13:48:37;;;;;;;;;;;;;;;;;;5106908;28;20092;-61
2024/03/28 13:51:02;;;;;;;;;;;;;;;;;;5109744;28;20048;-60
2024/03/28 13:53:27;;;;;;;;;;;;;;;;;;5110454;28;20014;-60
2024/03/28 13:55:52;;;;;;;;;;;;;;;;;;5110364;28;19912;-60
2024/03/28 13:58:17;;;;;;;;;;;;;;;;;;5096535;28;19920;-62
2024/03/28 14:00:42;;;;;;;;;;;;;;;;;;5098086;28;19922;-59
2024/03/28 14:03:07;;;;;;;;;;;;;;;;;;5110143;28;19922;-59
2024/03/28 14:05:33;;;;;;;;;;;;;;;;;;5094621;28;19943;-59
2024/03/28 14:07:58;;;;;;;;;;;;;;;;;;5095218;28;19916;-61
2024/03/28 14:10:23;;;;;;;;;;;;;;;;;;5112720;28;19911;-60
2024/03/28 14:12:49;;;;;;;;;;;;;;;;;;5108914;28;19920;-61
2024/03/28 14:15:14;;;;;;;;;;;;;;;;;;5095026;28;19915;-61
2024/03/28 14:17:39;;;;;;;;;;;;;;;;;;5095717;28;20245;-60
2024/03/28 14:20:05;;;;;;;;;;;;;;;;;;5112865;28;20478;-60
2024/03/28 14:22:30;;;;;;;;;;;;;;;;;;5107332;28;19962;-60
2024/03/28 14:24:55;;;;;;;;;;;;;;;;;;5104879;28;20002;-61
2024/03/28 14:27:20;;;;;;;;;;;;;;;;;;5114248;28;19912;-61
2024/03/28 14:29:45;;;;;;;;;;;;;;;;;;5109565;28;20003;-61
2024/03/28 14:32:10;;;;;;;;;;;;;;;;;;5103732;28;19912;-60
2024/03/28 14:34:35;;;;;;;;;;;;;;;;;;5107911;28;19912;-61
2024/03/28 14:37:00;;;;;;;;;;;;;;;;;;5104233;28;19916;-61
2024/03/28 14:39:26;;;;;;;;;;;;;;;;;;5094426;28;19958;-60
2024/03/28 14:41:51;;;;;;;;;;;;;;;;;;5111900;28;20430;-61
2024/03/28 14:44:16;;;;;;;;;;;;;;;;;;5110698;28;19919;-62
2024/03/28 14:46:41;;;;;;;;;;;;;;;;;;5095045;28;20392;-61
2024/03/28 14:49:06;;;;;;;;;;;;;;;;;;5114491;28;20306;-61
2024/03/28 14:51:31;;;;;;;;;;;;;;;;;;5108931;28;20347;-61
2024/03/28 14:53:56;;;;;;;;;;;;;;;;;;5108799;28;20345;-61
2024/03/28 14:56:22;;;;;;;;;;;;;;;;;;5113556;28;20424;-61
2024/03/28 14:58:47;;;;;;;;;;;;;;;;;;5103821;28;20282;-60
2024/03/28 15:01:12;;;;;;;;;;;;;;;;;;5111054;28;19930;-61
2024/03/28 15:03:37;;;;;;;;;;;;;;;;;;5100393;28;19966;-60
2024/03/28 15:06:02;;;;;;;;;;;;;;;;;;5104809;28;20272;-61
2024/03/28 15:08:28;;;;;;;;;;;;;;;;;;5096694;28;19937;-61
2024/03/28 15:10:53;;;;;;;;;;;;;;;;;;5093470;28;19912;-61
2024/03/28 15:13:18;;;;;;;;;;;;;;;;;;5103543;28;20030;-61
2024/03/28 15:15:43;;;;;;;;;;;;;;;;;;5099931;28;19909;-60
2024/03/28 15:18:09;;;;;;;;;;;;;;;;;;5103586;28;19912;-61
2024/03/28 15:20:34;;;;;;;;;;;;;;;;;;5112930;28;19994;-61
2024/03/28 15:22:59;;;;;;;;;;;;;;;;;;5113395;28;20014;-61
2024/03/28 15:25:24;;;;;;;;;;;;;;;;;;5105588;28;19919;-60
2024/03/28 15:27:49;;;;;;;;;;;;;;;;;;5102570;28;19919;-61
2024/03/28 15:30:15;;;;;;;;;;;;;;;;;;5098839;28;19919;-70
2024/03/28 15:32:40;;;;;;;;;;;;;;;;;;5113066;28;20424;-70
2024/03/28 15:35:05;;;;;;;;;;;;;;;;;;5096237;28;20368;-70
2024/03/28 15:37:30;;;;;;;;;;;;;;;;;;5093318;28;20279;-71
2024/03/28 15:39:56;;;;;;;;;;;;;;;;;;5104479;28;19916;-70
2024/03/28 15:42:21;;;;;;;;;;;;;;;;;;5106611;28;19924;-71
2024/03/28 15:44:46;;;;;;;;;;;;;;;;;;5102528;28;19912;-69
2024/03/28 15:47:11;;;;;;;;;;;;;;;;;;5104086;28;19951;-70
2024/03/28 15:49:36;;;;;;;;;;;;;;;;;;5094622;28;19923;-70
2024/03/28 15:52:02;;;;;;;;;;;;;;;;;;5092287;28;20371;-71
2024/03/28 15:54:27;;;;;;;;;;;;;;;;;;5100539;28;20354;-70
2024/03/28 15:56:52;;;;;;;;;;;;;;;;;;5101053;28;19919;-69
2024/03/28 15:59:17;;;;;;;;;;;;;;;;;;5096656;28;20003;-68
2024/03/28 16:01:44;;;;;;;;;;;;;;;;;;5104400;28;19927;-67
2024/03/28 16:04:09;;;;;;;;;;;;;;;;;;5106427;28;19986;-67
2024/03/28 16:06:36;;;;;;;;;;;;;;;;;;5106656;28;20431;-67
2024/03/28 16:09:01;;;;;;;;;;;;;;;;;;5108146;28;19912;-67
2024/03/28 16:11:26;;;;;;;;;;;;;;;;;;5092658;28;19916;-67
2024/03/28 16:13:51;;;;;;;;;;;;;;;;;;5092556;28;19915;-68
2024/03/28 16:16:16;;;;;;;;;;;;;;;;;;5100600;28;19960;-67
2024/03/28 16:18:41;;;;;;;;;;;;;;;;;;5112913;28;20661;-67
2024/03/28 16:21:07;;;;;;;;;;;;;;;;;;5108823;28;19923;-67
2024/03/28 16:23:32;;;;;;;;;;;;;;;;;;5112494;28;19974;-68
2024/03/28 16:25:57;;;;;;;;;;;;;;;;;;5109868;28;20368;-68
2024/03/28 16:28:23;;;;;;;;;;;;;;;;;;5111888;28;19908;-68
2024/03/28 16:30:48;;;;;;;;;;;;;;;;;;5111059;28;19912;-67
2024/03/28 16:33:13;;;;;;;;;;;;;;;;;;5111846;28;19959;-68
2024/03/28 16:35:38;;;;;;;;;;;;;;;;;;5106068;28;20352;-68
2024/03/28 16:38:03;;;;;;;;;;;;;;;;;;5101383;28;19911;-68